createdAt,value
2023-04-29T00:00:33.568Z,13.50
2023-04-29T00:05:36.243Z,13.40
2023-04-29T00:10:39.564Z,13.50
2023-04-29T00:15:41.469Z,13.40
2023-04-29T00:20:43.424Z,13.30
2023-04-29T00:25:45.184Z,13.30
2023-04-29T00:30:47.119Z,13.20
2023-04-29T00:35:48.881Z,13.10
2023-04-29T00:40:50.790Z,13.20
2023-04-29T00:45:52.691Z,13.10
2023-04-29T00:50:54.353Z,13.10
2023-04-29T00:55:56.283Z,13.00
2023-04-29T01:01:02.286Z,12.90
2023-04-29T01:06:07.086Z,12.90
2023-04-29T01:11:09.621Z,12.80
2023-04-29T01:16:12.938Z,12.80
2023-04-29T01:21:14.677Z,12.70
2023-04-29T01:26:16.293Z,12.70
2023-04-29T01:31:27.201Z,12.60
2023-04-29T01:36:33.862Z,12.60
2023-04-29T01:41:40.236Z,12.50
2023-04-29T01:46:43.175Z,12.50
2023-04-29T01:51:44.844Z,12.40
2023-04-29T01:56:47.479Z,12.30
2023-04-29T02:01:49.090Z,12.30
2023-04-29T02:06:52.832Z,12.20
2023-04-29T02:11:54.494Z,12.20
2023-04-29T02:16:56.194Z,12.20
2023-04-29T02:21:57.834Z,12.20
2023-04-29T02:27:00.442Z,12.20
2023-04-29T02:32:02.250Z,12.10
2023-04-29T02:37:04.783Z,12.10
2023-04-29T02:42:06.520Z,12.00
2023-04-29T02:47:08.248Z,11.90
2023-04-29T02:52:09.920Z,11.80
2023-04-29T02:57:11.588Z,11.80
2023-04-29T03:02:13.443Z,11.70
2023-04-29T03:07:17.328Z,11.80
2023-04-29T03:12:18.993Z,11.70
2023-04-29T03:17:21.124Z,11.70
2023-04-29T03:22:22.811Z,11.70
2023-04-29T03:27:24.450Z,11.70
2023-04-29T03:32:26.617Z,11.70
2023-04-29T03:37:28.305Z,11.60
2023-04-29T03:42:29.942Z,11.60
2023-04-29T03:47:31.672Z,11.60
2023-04-29T03:52:36.362Z,11.60
2023-04-29T03:57:42.074Z,11.60
2023-04-29T04:02:44.416Z,11.50
2023-04-29T04:07:46.764Z,11.50
2023-04-29T04:12:48.455Z,11.40
2023-04-29T04:17:50.642Z,11.30
2023-04-29T04:22:52.426Z,11.20
2023-04-29T04:27:54.444Z,11.20
2023-04-29T04:32:56.097Z,10.90
2023-04-29T04:37:59.320Z,10.90
2023-04-29T04:43:00.943Z,10.80
2023-04-29T04:48:03.005Z,10.70
2023-04-29T04:53:04.717Z,10.70
2023-04-29T04:58:06.458Z,10.50
2023-04-29T05:03:08.165Z,10.60
2023-04-29T05:08:09.966Z,10.40
2023-04-29T05:13:11.603Z,10.50
2023-04-29T05:18:13.299Z,10.50
2023-04-29T05:23:15.034Z,10.30
2023-04-29T05:28:16.615Z,10.40
2023-04-29T05:33:18.330Z,10.30
2023-04-29T05:38:20.093Z,10.20
2023-04-29T05:43:21.726Z,10.20
2023-04-29T05:48:24.718Z,10.10
2023-04-29T05:53:26.285Z,10.10
2023-04-29T05:58:27.889Z,10.00
2023-04-29T06:03:29.721Z,10.00
2023-04-29T06:08:31.543Z,10.00
2023-04-29T06:13:33.268Z,9.90
2023-04-29T06:18:34.900Z,9.90
2023-04-29T06:23:36.545Z,9.90
2023-04-29T06:28:38.165Z,9.90
2023-04-29T06:33:39.912Z,9.70
2023-04-29T06:38:41.609Z,9.80
2023-04-29T06:43:43.377Z,9.80
2023-04-29T06:48:45.837Z,9.90
2023-04-29T06:53:48.251Z,9.90
2023-04-29T06:58:49.955Z,10.00
2023-04-29T07:03:52.069Z,9.80
2023-04-29T07:08:56.244Z,9.90
2023-04-29T07:13:58.618Z,10.00
2023-04-29T07:19:00.316Z,10.00
2023-04-29T07:24:04.833Z,10.00
2023-04-29T07:29:06.447Z,10.00
2023-04-29T07:34:08.103Z,10.00
2023-04-29T07:39:11.132Z,10.20
2023-04-29T07:44:13.834Z,10.20
2023-04-29T07:49:15.466Z,10.20
2023-04-29T07:54:19.424Z,10.20
2023-04-29T07:59:22.097Z,10.20
2023-04-29T08:04:24.551Z,10.50
2023-04-29T08:09:26.312Z,10.50
2023-04-29T08:14:28.014Z,10.60
2023-04-29T08:19:29.731Z,10.50
2023-04-29T08:24:33.638Z,10.50
2023-04-29T08:29:37.024Z,10.50
2023-04-29T08:34:38.861Z,10.40
2023-04-29T08:39:40.714Z,10.50
2023-04-29T08:44:43.446Z,10.50
2023-04-29T08:49:46.082Z,10.50
2023-04-29T08:54:47.820Z,10.60
2023-04-29T08:59:49.597Z,10.50
2023-04-29T09:04:57.946Z,10.60
2023-04-29T09:10:01.699Z,10.70
2023-04-29T09:15:04.313Z,10.80
2023-04-29T09:20:28.331Z,10.70
2023-04-29T09:25:31.248Z,10.80
2023-04-29T09:30:32.955Z,10.80
2023-04-29T09:35:34.726Z,10.80
2023-04-29T09:40:50.293Z,10.80
2023-04-29T09:45:59.073Z,11.00
2023-04-29T09:51:04.324Z,11.20
2023-04-29T09:56:07.265Z,10.90
2023-04-29T10:01:09.530Z,11.10
2023-04-29T10:06:11.469Z,11.10
2023-04-29T10:11:13.454Z,11.10
2023-04-29T10:16:29.290Z,11.20
2023-04-29T10:21:31.490Z,11.40
2023-04-29T10:26:34.007Z,11.60
2023-04-29T10:31:36.676Z,11.60
2023-04-29T10:36:39.360Z,11.50
2023-04-29T10:41:46.919Z,11.50
2023-04-29T10:46:48.629Z,11.50
2023-04-29T10:51:51.417Z,11.30
2023-04-29T10:56:54.139Z,11.40
2023-04-29T11:01:55.791Z,11.40
2023-04-29T11:06:59.126Z,11.50
2023-04-29T11:12:01.540Z,11.60
2023-04-29T11:17:10.357Z,11.70
2023-04-29T11:22:13.224Z,11.60
2023-04-29T11:27:15.672Z,11.50
2023-04-29T11:32:23.018Z,11.50
2023-04-29T11:52:21.704Z,11.40
2023-04-29T11:57:23.491Z,11.50
2023-04-29T12:02:31.884Z,11.40
2023-04-29T12:07:33.732Z,11.50
2023-04-29T12:12:36.447Z,11.50
2023-04-29T12:17:38.810Z,11.30
2023-04-29T12:22:43.731Z,11.30
2023-04-29T12:27:45.370Z,11.40
2023-04-29T12:32:48.487Z,11.40
2023-04-29T12:37:50.918Z,11.30
2023-04-29T12:42:55.855Z,11.40
2023-04-29T12:47:58.065Z,11.40
2023-04-29T12:53:00.385Z,11.40
2023-04-29T12:58:03.553Z,11.30
2023-04-29T13:03:05.636Z,11.30
2023-04-29T13:08:08.308Z,11.50
2023-04-29T13:13:10.456Z,11.30
2023-04-29T13:18:12.123Z,11.40
2023-04-29T13:23:13.762Z,11.40
2023-04-29T13:28:16.519Z,11.30
2023-04-29T13:33:18.619Z,11.40
2023-04-29T13:38:22.881Z,11.40
2023-04-29T13:43:33.010Z,11.40
2023-04-29T13:54:37.306Z,11.50
2023-04-29T14:04:12.067Z,11.50
2023-04-29T14:09:14.004Z,11.50
2023-04-29T14:14:16.460Z,11.60
2023-04-29T14:19:18.026Z,11.80
2023-04-29T14:24:19.636Z,11.90
2023-04-29T14:29:21.580Z,12.10
2023-04-29T14:34:23.141Z,12.20
2023-04-29T14:39:25.985Z,12.30
2023-04-29T14:44:27.632Z,12.50
2023-04-29T14:49:31.500Z,12.50
2023-04-29T14:54:33.430Z,12.70
2023-04-29T14:59:35.029Z,12.60
2023-04-29T15:04:37.960Z,12.80
2023-04-29T15:09:39.899Z,12.90
2023-04-29T15:14:41.518Z,12.80
2023-04-29T15:19:43.166Z,12.80
2023-04-29T15:24:44.799Z,12.90
2023-04-29T15:29:46.440Z,12.90
2023-04-29T15:34:48.179Z,12.80
2023-04-29T15:39:50.566Z,12.90
2023-04-29T15:44:52.313Z,12.80
2023-04-29T15:49:56.253Z,12.90
2023-04-29T15:54:58.388Z,12.70
2023-04-29T16:00:00.113Z,12.80
2023-04-29T16:05:02.017Z,12.80
2023-04-29T16:10:03.909Z,12.70
2023-04-29T16:15:06.119Z,12.70
2023-04-29T16:20:08.214Z,12.70
2023-04-29T16:25:10.948Z,12.70
2023-04-29T16:30:12.701Z,12.60
2023-04-29T16:35:14.346Z,12.60
2023-04-29T16:40:15.949Z,12.60
2023-04-29T16:45:17.941Z,12.60
2023-04-29T16:50:19.656Z,12.60
2023-04-29T16:55:21.309Z,12.60
2023-04-29T17:00:23.048Z,12.70
2023-04-29T17:05:27.152Z,12.70
2023-04-29T17:10:29.818Z,12.70
2023-04-29T17:15:31.563Z,12.70
2023-04-29T17:20:33.925Z,12.80
2023-04-29T17:25:36.993Z,12.80
2023-04-29T17:30:38.648Z,12.80
2023-04-29T17:35:41.114Z,12.80
2023-04-29T17:40:42.853Z,12.80
2023-04-29T17:45:44.531Z,12.80
2023-04-29T17:50:46.630Z,12.80
2023-04-29T17:55:48.174Z,12.80
2023-04-29T18:00:49.821Z,12.60
2023-04-29T18:05:51.445Z,12.60
2023-04-29T18:10:53.057Z,12.60
2023-04-29T18:15:55.251Z,12.60
2023-04-29T18:20:56.809Z,12.50
2023-04-29T18:25:58.625Z,12.50
2023-04-29T18:31:00.217Z,12.40
2023-04-29T18:36:01.926Z,12.40
2023-04-29T18:41:03.520Z,12.40
2023-04-29T18:46:05.221Z,12.50
2023-04-29T18:51:07.421Z,12.30
2023-04-29T18:56:09.110Z,12.30
2023-04-29T19:01:10.774Z,12.20
2023-04-29T19:06:12.508Z,12.10
2023-04-29T19:11:14.436Z,12.00
2023-04-29T19:16:16.118Z,11.90
2023-04-29T19:21:18.207Z,11.80
2023-04-29T19:26:19.947Z,11.70
2023-04-29T19:31:21.672Z,11.50
2023-04-29T19:36:23.432Z,11.40
2023-04-29T19:41:25.121Z,11.40
2023-04-29T19:46:26.795Z,11.30
2023-04-29T19:51:28.564Z,11.20
2023-04-29T19:56:30.327Z,11.10
2023-04-29T20:01:32.014Z,11.20
2023-04-29T20:06:35.058Z,11.20
2023-04-29T20:11:36.883Z,11.00
2023-04-29T20:16:38.684Z,11.00
2023-04-29T20:21:40.459Z,11.00
2023-04-29T20:26:42.155Z,10.90
2023-04-29T20:31:43.916Z,11.00
2023-04-29T20:36:46.082Z,10.90
2023-04-29T20:41:47.727Z,10.70
2023-04-29T20:46:52.124Z,10.70
2023-04-29T20:51:53.749Z,10.70
2023-04-29T20:56:55.399Z,10.60
2023-04-29T21:01:57.089Z,10.50
2023-04-29T21:06:58.745Z,10.40
2023-04-29T21:12:01.387Z,10.40
2023-04-29T21:17:04.107Z,10.40
2023-04-29T21:22:05.849Z,10.30
2023-04-29T21:27:07.493Z,10.30
2023-04-29T21:32:09.253Z,10.30
2023-04-29T21:37:10.997Z,10.30
2023-04-29T21:42:13.556Z,10.10
2023-04-29T21:47:16.454Z,10.20
2023-04-29T21:52:18.194Z,10.20
2023-04-29T21:57:26.357Z,10.20
2023-04-29T22:02:38.238Z,10.10
2023-04-29T22:07:39.940Z,10.20
2023-04-29T22:12:41.740Z,10.10
2023-04-29T22:17:43.557Z,10.10
2023-04-29T22:22:45.229Z,10.20
2023-04-29T22:27:46.937Z,10.20
2023-04-29T22:32:48.722Z,10.20
2023-04-29T22:37:50.884Z,10.20
2023-04-29T22:42:52.592Z,10.20
2023-04-29T22:47:54.265Z,10.20
2023-04-29T22:52:55.905Z,10.20
2023-04-29T22:57:57.595Z,10.20
2023-04-29T23:02:59.264Z,10.20
2023-04-29T23:08:01.431Z,10.10
2023-04-29T23:13:03.464Z,10.20
2023-04-29T23:18:05.127Z,10.20
2023-04-29T23:23:06.749Z,10.20
2023-04-29T23:28:08.485Z,10.10
2023-04-29T23:33:11.109Z,10.10
2023-04-29T23:38:12.675Z,10.10
2023-04-29T23:43:16.343Z,10.10
2023-04-29T23:48:17.987Z,10.00
2023-04-29T23:53:19.679Z,10.00
2023-04-29T23:58:21.315Z,10.00
